createdAt,value
2023-01-19T00:02:34.768Z,2.26
2023-01-19T00:07:38.430Z,2.22
2023-01-19T00:12:41.942Z,2.23
2023-01-19T00:17:45.465Z,2.25
2023-01-19T00:22:51.233Z,2.28
2023-01-19T00:27:55.250Z,2.30
2023-01-19T00:33:00.538Z,2.28
2023-01-19T00:38:04.540Z,2.27
2023-01-19T00:43:09.076Z,2.28
2023-01-19T00:48:12.392Z,2.30
2023-01-19T00:53:16.008Z,2.26
2023-01-19T00:58:19.625Z,2.25
2023-01-19T01:03:28.335Z,2.22
2023-01-19T01:08:32.081Z,2.20
2023-01-19T01:13:35.700Z,2.20
2023-01-19T01:18:39.317Z,2.21
2023-01-19T01:23:42.936Z,2.21
2023-01-19T01:28:46.560Z,2.21
2023-01-19T01:33:50.276Z,2.24
2023-01-19T01:38:53.686Z,2.25
2023-01-19T01:43:59.059Z,2.29
2023-01-19T01:49:10.959Z,2.34
2023-01-19T01:54:26.454Z,2.38
2023-01-19T01:59:34.988Z,2.40
2023-01-19T02:04:43.625Z,2.42
2023-01-19T02:10:06.186Z,2.40
2023-01-19T02:15:18.542Z,2.39
2023-01-19T02:20:26.105Z,2.40
2023-01-19T02:25:29.945Z,2.44
2023-01-19T02:30:34.834Z,2.43
2023-01-19T02:35:40.147Z,2.42
2023-01-19T02:40:46.427Z,2.42
2023-01-19T02:45:50.437Z,2.44
2023-01-19T02:51:04.527Z,2.46
2023-01-19T02:56:46.544Z,2.44
2023-01-19T03:02:09.206Z,2.41
2023-01-19T03:07:38.526Z,2.38
2023-01-19T03:12:48.487Z,2.40
2023-01-19T03:17:53.749Z,2.40
2023-01-19T03:23:03.283Z,2.42
2023-01-19T03:28:07.030Z,2.49
2023-01-19T03:33:38.322Z,2.53
2023-01-19T03:38:44.394Z,2.56
2023-01-19T03:43:52.201Z,2.54
2023-01-19T03:48:57.436Z,2.53
2023-01-19T03:54:01.693Z,2.47
2023-01-19T03:59:08.372Z,2.43
2023-01-19T04:04:13.602Z,2.42
2023-01-19T04:09:19.242Z,2.26
2023-01-19T04:14:23.521Z,2.10
2023-01-19T04:19:27.032Z,1.95
2023-01-19T04:24:31.162Z,1.86
2023-01-19T04:29:34.676Z,1.82
2023-01-19T04:34:38.188Z,1.76
2023-01-19T04:39:41.707Z,1.74
2023-01-19T04:44:45.320Z,1.78
2023-01-19T04:49:48.836Z,1.78
2023-01-19T04:54:53.074Z,1.73
2023-01-19T04:59:57.914Z,1.69
2023-01-19T05:05:01.749Z,1.74
2023-01-19T05:10:07.215Z,1.80
2023-01-19T05:15:11.545Z,1.82
2023-01-19T05:20:16.373Z,1.87
2023-01-19T05:25:20.408Z,1.92
2023-01-19T05:30:24.030Z,1.95
2023-01-19T05:35:35.591Z,1.95
2023-01-19T05:40:40.080Z,1.99
2023-01-19T05:45:43.686Z,2.08
2023-01-19T05:50:49.752Z,2.19
2023-01-19T05:55:53.390Z,2.26
2023-01-19T06:00:57.422Z,2.28
2023-01-19T06:06:01.849Z,2.30
2023-01-19T06:11:06.589Z,2.34
2023-01-19T06:16:10.015Z,2.35
2023-01-19T06:21:14.537Z,2.35
2023-01-19T06:26:18.166Z,2.35
2023-01-19T06:31:21.856Z,2.34
2023-01-19T06:36:25.402Z,2.32
2023-01-19T06:41:30.044Z,2.33
2023-01-19T06:46:33.860Z,2.31
2023-01-19T06:51:37.594Z,2.31
2023-01-19T06:56:40.995Z,2.26
2023-01-19T07:01:45.268Z,2.27
2023-01-19T07:06:48.947Z,2.24
2023-01-19T07:11:54.924Z,2.36
2023-01-19T07:16:58.349Z,2.40
2023-01-19T07:22:03.484Z,2.40
2023-01-19T07:27:07.002Z,2.46
2023-01-19T07:32:10.625Z,2.54
2023-01-19T07:37:14.448Z,2.53
2023-01-19T07:42:18.267Z,2.42
2023-01-19T07:47:22.191Z,2.46
2023-01-19T07:52:25.807Z,2.51
2023-01-19T07:57:30.147Z,2.52
2023-01-19T08:02:34.377Z,2.48
2023-01-19T08:07:37.793Z,2.46
2023-01-19T08:12:42.329Z,2.46
2023-01-19T08:17:46.141Z,2.52
2023-01-19T08:22:50.281Z,2.60
2023-01-19T08:27:56.882Z,2.65
2023-01-19T08:33:09.909Z,2.71
2023-01-19T08:38:13.523Z,2.84
2023-01-19T08:43:18.486Z,3.01
2023-01-19T08:48:23.712Z,3.16
2023-01-19T08:53:27.452Z,3.27
2023-01-19T08:58:30.969Z,3.38
2023-01-19T09:03:36.021Z,3.46
2023-01-19T09:08:39.841Z,3.59
2023-01-19T09:13:43.666Z,3.64
2023-01-19T09:18:47.595Z,3.74
2023-01-19T09:23:51.210Z,3.83
2023-01-19T09:28:54.925Z,3.98
2023-01-19T09:33:58.546Z,4.18
2023-01-19T09:39:03.186Z,4.27
2023-01-19T09:44:09.265Z,4.39
2023-01-19T09:49:31.722Z,4.51
2023-01-19T09:54:44.656Z,4.60
2023-01-19T09:59:51.141Z,4.61
2023-01-19T10:05:17.906Z,4.65
2023-01-19T10:10:30.945Z,4.64
2023-01-19T10:15:59.717Z,4.69
2023-01-19T10:21:13.196Z,4.72
2023-01-19T10:26:34.148Z,4.69
2023-01-19T10:31:40.518Z,4.57
2023-01-19T10:36:47.420Z,4.47
2023-01-19T10:41:53.818Z,4.51
2023-01-19T10:47:00.561Z,4.55
2023-01-19T10:52:07.880Z,4.48
2023-01-19T10:57:20.567Z,4.57
2023-01-19T11:02:29.225Z,4.67
2023-01-19T11:07:34.411Z,4.82
2023-01-19T11:12:43.268Z,4.96
2023-01-19T11:17:48.602Z,5.05
2023-01-19T11:23:24.791Z,5.02
2023-01-19T11:28:42.442Z,5.03
2023-01-19T11:33:52.826Z,5.11
2023-01-19T11:38:59.309Z,5.09
2023-01-19T11:44:25.741Z,5.06
2023-01-19T11:49:58.754Z,5.07
2023-01-19T11:55:12.511Z,5.07
2023-01-19T12:00:48.596Z,5.11
2023-01-19T12:05:56.295Z,5.08
2023-01-19T12:11:02.079Z,5.06
2023-01-19T12:16:11.060Z,5.09
2023-01-19T12:21:14.635Z,5.05
2023-01-19T12:26:42.611Z,5.00
2023-01-19T12:31:46.284Z,4.99
2023-01-19T12:36:50.666Z,5.01
2023-01-19T12:42:11.283Z,4.98
2023-01-19T12:47:14.903Z,4.89
2023-01-19T12:52:41.388Z,4.87
2023-01-19T12:57:56.962Z,4.79
2023-01-19T13:03:24.955Z,4.86
2023-01-19T13:08:49.348Z,4.93
2023-01-19T13:13:59.020Z,4.94
2023-01-19T13:19:16.858Z,4.92
2023-01-19T13:24:22.849Z,4.91
2023-01-19T13:29:35.159Z,4.86
2023-01-19T13:34:51.474Z,4.80
2023-01-19T13:39:55.807Z,4.70
2023-01-19T13:45:03.928Z,4.61
2023-01-19T13:50:19.407Z,4.51
2023-01-19T13:55:24.621Z,4.41
2023-01-19T14:00:31.152Z,4.31
2023-01-19T14:05:37.127Z,4.20
2023-01-19T14:10:47.638Z,4.19
2023-01-19T14:15:57.153Z,4.17
2023-01-19T14:21:09.100Z,4.19
2023-01-19T14:26:37.661Z,4.13
2023-01-19T14:32:16.243Z,4.07
2023-01-19T14:37:31.631Z,3.95
2023-01-19T14:43:00.256Z,3.90
2023-01-19T14:48:10.458Z,3.83
2023-01-19T14:53:19.566Z,3.81
2023-01-19T14:58:25.729Z,3.77
2023-01-19T15:03:44.168Z,3.69
2023-01-19T15:08:50.503Z,3.65
2023-01-19T15:13:55.676Z,3.69
2023-01-19T15:18:59.246Z,3.66
2023-01-19T15:24:02.755Z,3.63
2023-01-19T15:29:26.560Z,3.62
2023-01-19T15:34:30.273Z,3.60
2023-01-19T15:39:34.090Z,3.59
2023-01-19T15:44:38.116Z,3.60
2023-01-19T15:49:41.562Z,3.60
2023-01-19T15:54:45.017Z,3.63
2023-01-19T15:59:48.567Z,3.56
2023-01-19T16:04:51.999Z,3.57
2023-01-19T16:09:55.500Z,3.63
2023-01-19T16:14:59.010Z,3.65
2023-01-19T16:20:04.601Z,3.62
2023-01-19T16:25:10.543Z,3.65
2023-01-19T16:30:16.734Z,3.67
2023-01-19T16:35:20.340Z,3.70
2023-01-19T16:40:23.963Z,3.66
2023-01-19T16:45:28.836Z,3.62
2023-01-19T16:50:32.217Z,3.56
2023-01-19T16:55:40.852Z,3.49
2023-01-19T17:00:44.411Z,3.48
2023-01-19T17:05:51.789Z,3.46
2023-01-19T17:10:56.010Z,3.50
2023-01-19T17:16:01.600Z,3.51
2023-01-19T17:21:07.431Z,3.51
2023-01-19T17:26:11.478Z,3.49
2023-01-19T17:31:17.747Z,3.45
2023-01-19T17:36:25.356Z,3.40
2023-01-19T17:41:31.090Z,3.41
2023-01-19T17:46:39.058Z,3.41
2023-01-19T17:51:42.560Z,3.41
2023-01-19T17:56:46.076Z,3.42
2023-01-19T18:01:49.588Z,3.39
2023-01-19T18:06:53.420Z,3.42
2023-01-19T18:11:57.034Z,3.40
2023-01-19T18:17:00.657Z,3.44
2023-01-19T18:22:04.276Z,3.45
2023-01-19T18:27:07.783Z,3.41
2023-01-19T18:32:11.400Z,3.44
2023-01-19T18:37:15.329Z,3.48
2023-01-19T18:42:18.948Z,3.52
2023-01-19T18:47:22.566Z,3.58
2023-01-19T18:52:26.854Z,3.63
2023-01-19T18:57:30.337Z,3.58
2023-01-19T19:02:33.824Z,3.59
2023-01-19T19:07:37.954Z,3.53
2023-01-19T19:12:41.470Z,3.53
2023-01-19T19:17:44.883Z,3.51
2023-01-19T19:22:49.119Z,3.53
2023-01-19T19:27:53.252Z,3.51
2023-01-19T19:32:57.172Z,3.45
2023-01-19T19:38:00.589Z,3.53
2023-01-19T19:43:04.917Z,3.46
2023-01-19T19:48:08.332Z,3.43
2023-01-19T19:53:11.847Z,3.34
2023-01-19T19:58:15.363Z,3.32
2023-01-19T20:03:19.498Z,3.22
2023-01-19T20:08:24.243Z,3.12
2023-01-19T20:13:27.751Z,3.06
2023-01-19T20:18:32.579Z,3.04
2023-01-19T20:23:36.013Z,2.94
2023-01-19T20:28:41.272Z,2.84
2023-01-19T20:33:45.807Z,2.72
2023-01-19T20:38:49.221Z,2.63
2023-01-19T20:43:53.365Z,2.49
2023-01-19T20:48:56.765Z,2.34
2023-01-19T20:54:00.533Z,2.32
2023-01-19T20:59:04.318Z,2.38
2023-01-19T21:04:08.340Z,2.36
2023-01-19T21:09:13.394Z,2.33
2023-01-19T21:14:17.623Z,2.29
2023-01-19T21:19:22.621Z,2.28
2023-01-19T21:24:26.081Z,2.29
2023-01-19T21:29:31.236Z,2.32
2023-01-19T21:34:34.856Z,2.31
2023-01-19T21:39:38.578Z,2.28
2023-01-19T21:44:42.201Z,2.29
2023-01-19T21:49:45.545Z,2.34
2023-01-19T21:54:49.023Z,2.39
2023-01-19T21:59:53.772Z,2.44
2023-01-19T22:04:57.288Z,2.48
2023-01-19T22:10:01.000Z,2.57
2023-01-19T22:15:05.141Z,2.62
2023-01-19T22:20:09.730Z,2.68
2023-01-19T22:25:13.205Z,2.79
2023-01-19T22:30:17.624Z,2.81
2023-01-19T22:35:21.647Z,2.86
2023-01-19T22:40:25.166Z,2.96
2023-01-19T22:45:28.680Z,3.08
2023-01-19T22:50:32.093Z,3.14
2023-01-19T22:55:35.619Z,3.14
2023-01-19T23:00:39.108Z,3.21
2023-01-19T23:05:42.660Z,3.23
2023-01-19T23:10:46.363Z,3.24
2023-01-19T23:15:49.914Z,3.23
2023-01-19T23:20:54.004Z,3.28
2023-01-19T23:26:02.350Z,3.20
2023-01-19T23:31:17.285Z,3.09
2023-01-19T23:36:23.194Z,3.12
2023-01-19T23:41:29.081Z,3.14
2023-01-19T23:46:32.572Z,3.09
2023-01-19T23:51:36.294Z,3.05
2023-01-19T23:56:40.217Z,2.99
